Time;durP1;ratioP1;P1;durP2;ratioP2;P2;SDS_P1;SDS_P2;PMS_P1;PMS_P2;Temp;Humidity;BMP_temperature;BMP_pressure;BME280_temperature;BME280_humidity;BME280_pressure;Samples;Min_cycle;Max_cycle;Signal;HPM_P1;HPM_P2
2023/04/26 00:00:08;;;;;;;5.13;1.90;;;;;;;5.37;100.00;99171.88;5011273;28;20190;-78
2023/04/26 00:02:37;;;;;;;9.50;4.77;;;;;;;5.38;100.00;99176.19;5015565;28;20195;-79
2023/04/26 00:05:07;;;;;;;4.23;2.70;;;;;;;5.37;100.00;99177.13;5010473;28;20206;-79
2023/04/26 00:07:38;;;;;;;5.93;2.33;;;;;;;5.36;100.00;99183.28;5011254;28;20202;-78
2023/04/26 00:10:08;;;;;;;4.40;2.50;;;;;;;5.27;100.00;99178.44;5010408;28;20229;-78
2023/04/26 00:12:36;;;;;;;6.17;2.37;;;;;;;5.22;100.00;99183.03;5009859;28;20199;-79
2023/04/26 00:15:06;;;;;;;5.50;2.33;;;;;;;5.20;100.00;99184.00;5012695;28;20325;-79
2023/04/26 00:17:34;;;;;;;4.10;2.07;;;;;;;5.15;100.00;99178.94;5015476;28;20256;-78
2023/04/26 00:20:07;;;;;;;2.97;1.80;;;;;;;5.10;100.00;99178.28;4977722;28;20222;-79
2023/04/26 00:22:36;;;;;;;6.17;2.40;;;;;;;5.06;100.00;99187.19;4993623;28;20231;-78
2023/04/26 00:25:06;;;;;;;6.03;2.10;;;;;;;5.06;100.00;99187.19;4993072;28;20245;-78
2023/04/26 00:27:35;;;;;;;3.53;1.83;;;;;;;5.06;100.00;99184.56;4991088;28;20230;-79
2023/04/26 00:30:03;;;;;;;4.90;2.03;;;;;;;5.06;100.00;99184.56;4995850;28;20257;-78
2023/04/26 00:32:34;;;;;;;5.90;1.90;;;;;;;4.95;100.00;99173.66;4992902;28;20744;-79
2023/04/26 00:35:03;;;;;;;4.03;1.90;;;;;;;4.89;100.00;99180.84;4992078;28;20245;-78
2023/04/26 00:37:32;;;;;;;5.53;2.33;;;;;;;4.75;100.00;99187.59;4995646;28;20744;-78
2023/04/26 00:40:00;;;;;;;3.77;2.47;;;;;;;4.67;100.00;99193.13;4993279;28;20298;-78
2023/04/26 00:42:29;;;;;;;6.13;2.10;;;;;;;4.72;100.00;99193.78;4991617;28;20203;-79
2023/04/26 00:44:57;;;;;;;6.23;1.97;;;;;;;4.67;100.00;99187.03;4995599;28;20686;-78
2023/04/26 00:47:26;;;;;;;2.77;1.93;;;;;;;4.69;100.00;99186.06;4995552;28;20202;-78
2023/04/26 00:49:55;;;;;;;4.30;2.60;;;;;;;4.76;100.00;99191.91;4994188;28;20191;-78
2023/04/26 00:52:24;;;;;;;4.87;2.40;;;;;;;4.71;100.00;99192.09;4994839;28;20242;-78
2023/04/26 00:54:54;;;;;;;7.80;2.50;;;;;;;4.53;100.00;99188.41;4995452;28;20197;-78
2023/04/26 00:57:23;;;;;;;7.77;2.83;;;;;;;4.39;100.00;99185.50;4988999;28;20211;-78
2023/04/26 00:59:53;;;;;;;5.23;2.57;;;;;;;4.39;100.00;99189.88;4995143;28;20188;-78
2023/04/26 01:02:22;;;;;;;7.13;3.37;;;;;;;4.28;100.00;99199.00;4990054;28;20199;-78
2023/04/26 01:04:51;;;;;;;5.67;2.97;;;;;;;4.28;100.00;99203.41;4992432;28;20195;-78
2023/04/26 01:07:19;;;;;;;6.50;3.17;;;;;;;4.16;100.00;99189.00;4994634;28;20207;-79
2023/04/26 01:09:49;;;;;;;7.33;3.23;;;;;;;4.25;100.00;99196.50;4992221;28;20708;-78
2023/04/26 01:12:19;;;;;;;5.10;2.90;;;;;;;4.26;100.00;99200.84;4992302;28;20418;-78
2023/04/26 01:14:47;;;;;;;7.27;3.53;;;;;;;4.36;100.00;99192.63;4993903;28;20199;-79
2023/04/26 01:17:18;;;;;;;5.83;3.17;;;;;;;4.36;100.00;99195.25;4993012;28;20203;-79
2023/04/26 01:19:47;;;;;;;7.07;2.97;;;;;;;4.22;100.00;99201.00;4993616;28;20239;-79
2023/04/26 01:22:16;;;;;;;5.57;3.10;;;;;;;4.23;100.00;99198.31;5010495;28;20688;-78
2023/04/26 01:24:50;;;;;;;6.30;3.43;;;;;;;4.24;100.00;99201.78;5009755;28;20191;-79
2023/04/26 01:27:18;;;;;;;7.80;3.37;;;;;;;4.20;100.00;99198.44;5014274;28;20667;-78
2023/04/26 01:29:46;;;;;;;5.23;3.03;;;;;;;4.07;100.00;99189.34;5008134;28;20336;-78
2023/04/26 01:32:16;;;;;;;7.27;3.37;;;;;;;4.12;100.00;99194.38;5014188;28;20205;-78
2023/04/26 01:34:44;;;;;;;7.23;3.50;;;;;;;4.18;100.00;99187.16;5012899;28;20209;-78
2023/04/26 01:37:12;;;;;;;6.20;3.10;;;;;;;4.13;100.00;99190.84;5014055;28;20198;-79
2023/04/26 01:39:40;;;;;;;10.80;3.40;;;;;;;4.02;100.00;99186.88;5002326;28;20226;-78
2023/04/26 01:42:10;;;;;;;5.53;3.30;;;;;;;4.03;100.00;99190.34;5009828;28;20198;-76
2023/04/26 01:44:40;;;;;;;5.40;2.80;;;;;;;4.11;100.00;99188.28;5010813;28;20210;-78
2023/04/26 01:47:08;;;;;;;5.90;3.10;;;;;;;3.85;100.00;99188.38;5013742;28;20680;-78
2023/04/26 01:49:36;;;;;;;6.47;2.80;;;;;;;3.84;100.00;99181.44;5012672;28;20202;-78
2023/04/26 01:52:04;;;;;;;4.47;3.10;;;;;;;3.94;100.00;99194.16;5013847;28;20194;-78
2023/04/26 01:54:33;;;;;;;5.97;3.17;;;;;;;3.70;100.00;99195.06;5006781;28;20203;-78
2023/04/26 01:57:01;;;;;;;3.87;2.47;;;;;;;3.82;100.00;99194.59;5009244;28;20198;-79
2023/04/26 01:59:31;;;;;;;6.63;3.10;;;;;;;3.71;100.00;99191.53;5008001;28;20224;-78
2023/04/26 02:01:59;;;;;;;6.60;3.33;;;;;;;3.69;100.00;99195.97;5009625;28;20229;-78
2023/04/26 02:04:28;;;;;;;5.70;3.20;;;;;;;3.70;100.00;99193.28;5009667;28;20249;-78
2023/04/26 02:06:56;;;;;;;5.00;2.97;;;;;;;3.66;100.00;99196.06;5010863;28;20225;-79
2023/04/26 02:09:24;;;;;;;5.93;3.50;;;;;;;3.72;100.00;99188.00;5010899;28;20191;-79
2023/04/26 02:11:52;;;;;;;5.50;3.27;;;;;;;3.65;100.00;99191.72;5013558;28;20195;-78
2023/04/26 02:14:21;;;;;;;7.40;3.47;;;;;;;3.69;100.00;99194.19;5004518;28;20198;-76
2023/04/26 02:16:51;;;;;;;7.40;3.87;;;;;;;3.53;100.00;99194.78;5010387;28;20649;-76
2023/04/26 02:19:19;;;;;;;9.47;3.80;;;;;;;3.37;100.00;99200.53;5007772;28;20616;-79
2023/04/26 02:21:56;;;;;;;5.77;3.40;;;;;;;3.38;100.00;99206.66;5008202;28;20398;-78
2023/04/26 02:24:25;;;;;;;6.53;3.70;;;;;;;3.41;100.00;99202.16;5008311;28;20269;-79
2023/04/26 02:26:54;;;;;;;6.43;3.60;;;;;;;3.41;100.00;99202.16;5007909;28;20206;-79
2023/04/26 02:29:23;;;;;;;5.70;3.30;;;;;;;3.34;100.00;99198.03;5009274;28;20249;-79
2023/04/26 02:32:13;;;;;;;6.87;4.17;;;;;;;3.40;100.00;99197.84;5013391;28;20641;-79
2023/04/26 02:34:43;;;;;;;8.43;3.70;;;;;;;3.47;100.00;99202.84;5007875;28;20720;-79
2023/04/26 02:37:11;;;;;;;10.37;3.97;;;;;;;3.37;100.00;99202.31;5010200;28;20677;-78
2023/04/26 02:39:39;;;;;;;6.20;3.80;;;;;;;3.14;100.00;99200.47;5008605;28;20214;-78
2023/04/26 02:42:09;;;;;;;8.37;3.90;;;;;;;3.04;100.00;99204.28;5010423;28;20198;-79
2023/04/26 02:44:38;;;;;;;7.63;3.80;;;;;;;3.09;100.00;99199.78;5013134;28;20219;-78
2023/04/26 02:47:07;;;;;;;5.53;3.30;;;;;;;3.20;100.00;99207.28;5013214;28;20206;-79
2023/04/26 02:49:36;;;;;;;6.03;3.20;;;;;;;3.15;100.00;99207.41;5003921;28;20198;-78
2023/04/26 02:52:05;;;;;;;4.60;3.67;;;;;;;3.07;100.00;99206.78;5010225;28;20204;-78
2023/04/26 02:54:33;;;;;;;9.17;4.10;;;;;;;2.93;100.00;99198.56;4999633;28;20253;-78
2023/04/26 02:57:01;;;;;;;6.70;3.83;;;;;;;3.02;100.00;99199.13;5010524;28;20253;-79
2023/04/26 02:59:30;;;;;;;7.97;3.47;;;;;;;3.03;100.00;99199.97;5007668;28;20265;-78
2023/04/26 03:01:58;;;;;;;6.27;3.70;;;;;;;2.97;100.00;99202.78;5012699;28;20252;-79
2023/04/26 03:04:27;;;;;;;7.07;3.83;;;;;;;2.95;100.00;99201.97;5001969;28;20249;-78
2023/04/26 03:06:58;;;;;;;8.93;4.10;;;;;;;2.97;100.00;99193.16;5007542;28;20206;-78
2023/04/26 03:09:27;;;;;;;7.43;4.33;;;;;;;3.16;100.00;99201.25;5012792;28;20246;-78
2023/04/26 03:11:55;;;;;;;6.50;4.10;;;;;;;2.88;100.00;99202.16;5005024;28;20240;-78
2023/04/26 03:14:23;;;;;;;7.40;4.40;;;;;;;2.85;100.00;99210.13;5009796;28;20190;-78
2023/04/26 03:16:52;;;;;;;6.77;4.17;;;;;;;2.84;100.00;99200.56;5009779;28;20198;-78
2023/04/26 03:19:20;;;;;;;8.37;4.93;;;;;;;2.83;100.00;99200.63;5006906;28;20222;-79
2023/04/26 03:21:48;;;;;;;6.73;4.13;;;;;;;2.79;100.00;99205.06;5009798;28;20229;-78
2023/04/26 03:24:18;;;;;;;7.47;4.80;;;;;;;2.58;100.00;99204.00;5009891;28;20206;-78
2023/04/26 03:26:46;;;;;;;6.87;4.73;;;;;;;2.55;100.00;99204.09;5006059;28;20252;-78
2023/04/26 03:29:14;;;;;;;8.53;4.93;;;;;;;2.41;100.00;99202.78;5012673;28;20711;-79
2023/04/26 03:31:43;;;;;;;8.17;4.97;;;;;;;2.48;100.00;99201.72;5005726;28;20210;-78
2023/04/26 03:34:11;;;;;;;8.27;4.50;;;;;;;2.49;100.00;99200.81;5014077;28;20194;-79
2023/04/26 03:36:39;;;;;;;6.87;4.57;;;;;;;2.52;100.00;99204.19;5026639;28;20252;-78
2023/04/26 03:39:08;;;;;;;7.97;4.83;;;;;;;2.48;100.00;99201.72;5010842;28;20210;-78
2023/04/26 03:41:39;;;;;;;7.53;4.70;;;;;;;2.58;100.00;99193.53;5013385;28;20249;-78
2023/04/26 03:44:07;;;;;;;6.93;4.97;;;;;;;2.44;100.00;99200.09;5016243;28;20750;-78
2023/04/26 03:46:35;;;;;;;7.97;5.00;;;;;;;2.53;100.00;99197.22;5006539;28;20194;-78
2023/04/26 03:49:03;;;;;;;8.93;5.03;;;;;;;2.45;100.00;99197.44;5012239;28;20252;-78
2023/04/26 03:51:31;;;;;;;6.37;4.90;;;;;;;2.48;100.00;99197.34;5013006;28;20190;-78
2023/04/26 03:54:00;;;;;;;6.67;4.80;;;;;;;2.27;100.00;99201.47;5012996;28;20194;-79
2023/04/26 03:56:28;;;;;;;7.90;5.00;;;;;;;2.38;100.00;99192.44;5010639;28;20209;-78
2023/04/26 03:58:57;;;;;;;8.03;4.80;;;;;;;2.54;100.00;99199.78;5012198;28;20202;-78
2023/04/26 04:01:26;;;;;;;14.20;8.60;;;;;;;2.46;100.00;99201.75;5012805;28;20221;-78
2023/04/26 04:03:55;;;;;;;34.50;19.63;;;;;;;2.37;100.00;99196.81;5013185;28;20198;-78
2023/04/26 04:06:23;;;;;;;11.00;6.60;;;;;;;2.35;100.00;99195.16;5015461;28;20198;-78
2023/04/26 04:08:53;;;;;;;10.63;6.80;;;;;;;2.47;100.00;99195.63;5004907;28;20195;-78
2023/04/26 04:11:22;;;;;;;14.07;7.90;;;;;;;2.47;100.00;99195.63;5010405;28;20200;-78
2023/04/26 04:13:50;;;;;;;9.33;5.23;;;;;;;2.29;100.00;99198.78;5012563;28;20252;-78
2023/04/26 04:16:20;;;;;;;9.87;5.53;;;;;;;2.42;100.00;99194.06;5011649;28;20202;-78
2023/04/26 04:18:48;;;;;;;9.83;5.60;;;;;;;2.40;100.00;99203.69;5013802;28;20203;-78
2023/04/26 04:21:17;;;;;;;7.47;5.30;;;;;;;2.55;100.00;99200.63;5011196;28;20226;-78
2023/04/26 04:23:45;;;;;;;11.70;6.93;;;;;;;2.64;100.00;99202.97;5009998;28;20195;-78
2023/04/26 04:26:14;;;;;;;6.70;5.10;;;;;;;2.52;100.00;99198.97;5010248;28;20242;-79
2023/04/26 04:28:43;;;;;;;6.80;4.67;;;;;;;2.46;100.00;99204.38;5005725;28;20253;-79
2023/04/26 04:31:11;;;;;;;11.13;4.97;;;;;;;2.27;100.00;99204.06;5015286;28;20199;-79
2023/04/26 04:33:41;;;;;;;7.80;4.63;;;;;;;2.24;100.00;99206.78;5010982;28;20206;-78
2023/04/26 04:36:10;;;;;;;8.10;5.03;;;;;;;2.23;100.00;99209.44;5014063;28;20206;-78
2023/04/26 04:38:38;;;;;;;10.07;4.97;;;;;;;2.28;100.00;99208.38;5010572;28;20195;-78
2023/04/26 04:41:07;;;;;;;9.20;5.20;;;;;;;2.41;100.00;99210.63;5012316;28;20218;-78
2023/04/26 04:43:36;;;;;;;8.33;5.47;;;;;;;2.38;100.00;99213.34;5011844;28;20203;-78
2023/04/26 04:46:04;;;;;;;9.83;6.03;;;;;;;2.44;100.00;99218.41;5009836;28;20198;-78
2023/04/26 04:48:32;;;;;;;9.90;5.40;;;;;;;2.30;100.00;99216.19;5008825;28;20206;-78
2023/04/26 04:51:02;;;;;;;12.03;6.50;;;;;;;2.37;100.00;99222.94;5008448;28;20199;-78
2023/04/26 04:53:30;;;;;;;8.70;6.47;;;;;;;2.21;100.00;99226.91;5009650;28;20197;-78
2023/04/26 04:55:58;;;;;;;8.20;6.40;;;;;;;2.28;100.00;99226.69;5012201;28;20206;-78
2023/04/26 04:58:27;;;;;;;10.33;5.90;;;;;;;2.45;100.00;99234.03;5008713;28;20206;-78
2023/04/26 05:00:55;;;;;;;7.20;5.90;;;;;;;2.53;100.00;99224.22;5014546;28;20218;-78
2023/04/26 05:03:24;;;;;;;7.13;5.10;;;;;;;2.53;100.00;99234.66;5011824;28;20257;-78
2023/04/26 05:05:52;;;;;;;9.37;4.90;;;;;;;2.53;100.00;99239.03;5003939;28;20253;-77
2023/04/26 05:08:22;;;;;;;10.60;5.70;;;;;;;2.23;100.00;99244.25;5007565;28;20221;-77
2023/04/26 05:10:50;;;;;;;10.57;5.10;;;;;;;2.48;100.00;99254.84;5014799;28;20245;-77
2023/04/26 05:13:18;;;;;;;9.67;5.30;;;;;;;2.64;100.00;99247.41;4964387;28;20203;-77
2023/04/26 05:15:46;;;;;;;6.77;4.97;;;;;;;2.48;100.00;99249.63;5011596;28;20198;-77
2023/04/26 05:18:14;;;;;;;9.07;5.60;;;;;;;2.63;100.00;99255.31;5010171;28;20302;-77
2023/04/26 05:20:42;;;;;;;7.47;5.37;;;;;;;2.65;100.00;99269.19;5003319;28;20331;-77
2023/04/26 05:23:11;;;;;;;8.33;5.20;;;;;;;2.83;100.00;99260.78;5005060;28;20251;-77
2023/04/26 05:25:40;;;;;;;8.57;5.17;;;;;;;3.13;100.00;99267.66;5010410;28;20249;-77
2023/04/26 05:28:11;;;;;;;7.17;5.07;;;;;;;3.08;100.00;99266.94;5014358;28;20206;-77
2023/04/26 05:30:39;;;;;;;7.43;4.70;;;;;;;3.12;100.00;99272.94;5011511;28;20194;-77
2023/04/26 05:33:07;;;;;;;9.23;5.13;;;;;;;3.40;100.00;99276.38;5009674;28;20594;-77
2023/04/26 05:35:36;;;;;;;8.07;4.70;;;;;;;3.56;100.00;99286.31;5008504;28;20202;-77
2023/04/26 05:38:04;;;;;;;7.80;4.57;;;;;;;3.61;100.00;99281.78;5009019;28;20198;-77
2023/04/26 05:40:34;;;;;;;10.97;4.93;;;;;;;3.62;100.00;99275.66;5010932;28;20218;-77
2023/04/26 05:43:03;;;;;;;7.93;5.50;;;;;;;3.68;100.00;99272.84;5001772;28;20256;-77
2023/04/26 05:45:32;;;;;;;10.03;6.07;;;;;;;3.70;100.00;99284.97;5005871;28;20244;-78
2023/04/26 05:48:00;;;;;;;8.70;6.13;;;;;;;3.66;100.00;99278.09;5011000;28;20202;-77
2023/04/26 05:50:29;;;;;;;8.10;5.17;;;;;;;3.67;100.00;99278.97;5004070;28;20198;-77
2023/04/26 05:52:57;;;;;;;8.43;5.27;;;;;;;3.63;100.00;99287.84;5013578;28;20202;-77
2023/04/26 05:55:26;;;;;;;10.30;5.43;;;;;;;3.79;100.00;99288.19;5010481;28;20249;-77
2023/04/26 05:57:54;;;;;;;11.23;5.13;;;;;;;3.86;100.00;99282.69;5009188;28;20293;-78
2023/04/26 06:00:26;;;;;;;5.50;4.30;;;;;;;4.01;100.00;99289.97;5013688;28;20245;-77
2023/04/26 06:02:54;;;;;;;8.27;4.80;;;;;;;4.08;100.00;99290.63;5005884;28;20465;-78
2023/04/26 06:05:23;;;;;;;7.83;5.03;;;;;;;4.07;100.00;99296.78;5001575;28;20194;-78
2023/04/26 06:07:51;;;;;;;8.70;5.07;;;;;;;4.14;100.00;99292.16;5013752;28;20229;-78
2023/04/26 06:10:20;;;;;;;10.53;5.27;;;;;;;4.01;100.00;99295.22;5010810;28;20190;-78
2023/04/26 06:12:48;;;;;;;8.73;4.67;;;;;;;4.02;100.00;99298.69;5010650;28;20257;-78
2023/04/26 06:15:17;;;;;;;8.63;4.80;;;;;;;4.15;100.00;99299.09;5011337;28;20237;-77
2023/04/26 06:17:46;;;;;;;7.90;4.63;;;;;;;4.40;100.00;99299.09;5003110;28;20256;-77
2023/04/26 06:20:15;;;;;;;10.77;5.10;;;;;;;4.50;100.00;99295.22;5008523;28;20202;-78
2023/04/26 06:22:43;;;;;;;9.20;4.53;;;;;;;4.64;100.00;99297.34;5013102;28;20250;-78
2023/04/26 06:25:11;;;;;;;6.97;4.43;;;;;;;4.68;100.00;99291.91;5010365;28;20202;-78
2023/04/26 06:27:39;;;;;;;8.33;4.60;;;;;;;4.79;100.00;99286.25;5013545;28;20286;-77
2023/04/26 06:30:09;;;;;;;11.00;4.50;;;;;;;4.73;100.00;99297.84;5008245;28;20583;-77
2023/04/26 06:32:39;;;;;;;6.90;4.77;;;;;;;4.82;100.00;99301.84;5006717;28;20671;-78
2023/04/26 06:35:09;;;;;;;11.30;4.67;;;;;;;4.81;100.00;99301.00;5002891;28;20249;-77
2023/04/26 06:37:38;;;;;;;5.93;3.80;;;;;;;5.07;100.00;99307.88;5014073;28;20198;-77
2023/04/26 06:40:08;;;;;;;13.50;4.70;;;;;;;5.03;100.00;99306.31;5010741;28;20252;-77
2023/04/26 06:42:36;;;;;;;7.97;4.00;;;;;;;5.19;100.00;99309.16;5003451;28;20222;-78
2023/04/26 06:45:05;;;;;;;9.20;3.73;;;;;;;5.28;100.00;99308.81;5004493;28;20206;-77
2023/04/26 06:47:33;;;;;;;5.93;3.97;;;;;;;5.42;100.00;99313.50;5002584;28;20206;-78
2023/04/26 06:50:03;;;;;;;8.30;3.87;;;;;;;5.52;100.00;99306.97;5007677;28;20198;-78
2023/04/26 06:52:32;;;;;;;9.80;4.23;;;;;;;5.51;100.00;99310.50;5010077;28;20217;-78
2023/04/26 06:55:02;;;;;;;8.97;4.27;;;;;;;5.68;100.00;99312.41;5012912;28;20305;-78
2023/04/26 06:57:30;;;;;;;10.83;4.83;;;;;;;5.73;100.00;99310.47;5010107;28;20626;-78
2023/04/26 06:59:59;;;;;;;9.27;4.87;;;;;;;5.62;100.00;99305.66;5008517;28;20206;-78
2023/04/26 07:02:27;;;;;;;8.63;4.67;;;;;;;5.87;100.00;99307.25;5012702;28;20261;-78
2023/04/26 07:04:56;;;;;;;8.43;4.73;;;;;;;6.08;100.00;99310.75;5011704;28;20198;-78
2023/04/26 07:07:24;;;;;;;10.43;3.37;;;;;;;6.13;100.00;99309.66;5014225;28;20205;-78
2023/04/26 07:09:54;;;;;;;8.63;3.87;;;;;;;6.19;100.00;99311.16;5013398;28;20202;-78
2023/04/26 07:12:22;;;;;;;9.83;3.63;;;;;;;6.35;100.00;99300.81;5015173;28;20773;-78
2023/04/26 07:14:50;;;;;;;7.93;4.10;;;;;;;6.25;100.00;99298.59;5006521;28;20190;-78
2023/04/26 07:17:18;;;;;;;6.40;3.37;;;;;;;6.43;100.00;99309.22;5012259;28;20202;-77
2023/04/26 07:19:46;;;;;;;9.77;3.57;;;;;;;5.83;100.00;99311.78;5008365;28;20715;-78
2023/04/26 07:22:14;;;;;;;7.10;3.87;;;;;;;6.31;100.00;99300.09;5011829;28;20739;-77
2023/04/26 07:24:42;;;;;;;7.37;3.80;;;;;;;6.52;100.00;99314.06;5017418;28;20194;-78
2023/04/26 07:27:12;;;;;;;9.70;3.83;;;;;;;6.60;100.00;99311.97;5014409;28;20202;-78
2023/04/26 07:29:40;;;;;;;6.47;3.60;;;;;;;6.38;100.00;99306.81;5013895;28;20205;-78
2023/04/26 07:32:08;;;;;;;11.00;3.70;;;;;;;6.57;100.00;99302.44;5016639;28;20199;-78
2023/04/26 07:34:37;;;;;;;16.10;4.67;;;;;;;6.39;100.00;99300.63;5010843;28;20244;-78
2023/04/26 07:37:05;;;;;;;10.23;3.37;;;;;;;6.59;100.00;99297.94;5016109;28;20213;-78
2023/04/26 07:39:34;;;;;;;9.60;3.43;;;;;;;6.78;100.00;99295.31;5012218;28;20206;-78
2023/04/26 07:42:02;;;;;;;7.93;3.10;;;;;;;6.99;100.00;99298.72;5013472;28;20296;-78
2023/04/26 07:44:31;;;;;;;7.13;2.73;;;;;;;7.12;100.00;99299.00;5016233;28;20241;-78
2023/04/26 07:46:59;;;;;;;9.43;3.10;;;;;;;6.90;100.00;99293.88;5016187;28;20197;-78
2023/04/26 07:49:28;;;;;;;9.47;3.07;;;;;;;7.28;100.00;99288.59;5012125;28;20274;-78
2023/04/26 07:51:57;;;;;;;8.67;2.70;;;;;;;7.44;100.00;99294.81;5016202;28;20198;-78
2023/04/26 07:54:25;;;;;;;6.43;2.37;;;;;;;7.78;100.00;99293.97;5016375;28;20198;-78
2023/04/26 07:56:54;;;;;;;9.03;2.53;;;;;;;7.85;100.00;99281.34;5011919;28;20256;-78
2023/04/26 07:59:23;;;;;;;5.93;2.33;;;;;;;7.85;100.00;99286.63;5011010;28;20202;-77
2023/04/26 08:01:52;;;;;;;7.57;2.90;;;;;;;7.67;100.00;99296.31;5008237;28;20249;-78
2023/04/26 08:04:31;;;;;;;5.73;2.10;;;;;;;7.77;100.00;99294.91;5014629;28;20206;-78
2023/04/26 08:07:00;;;;;;;6.30;2.23;;;;;;;8.08;100.00;99291.56;5013395;28;20210;-78
2023/04/26 08:09:29;;;;;;;6.50;2.20;;;;;;;8.04;100.00;99300.56;5013133;28;20209;-78
2023/04/26 08:11:59;;;;;;;4.27;1.90;;;;;;;8.17;100.00;99285.81;5015879;28;20229;-78
2023/04/26 08:14:28;;;;;;;7.47;2.23;;;;;;;8.48;100.00;99287.72;5015670;28;20256;-78
2023/04/26 08:16:58;;;;;;;5.77;2.03;;;;;;;8.55;100.00;99297.00;5012673;28;20229;-78
2023/04/26 08:19:29;;;;;;;6.40;2.30;;;;;;;8.14;100.00;99295.69;5013583;28;20229;-78
2023/04/26 08:21:57;;;;;;;6.10;2.10;;;;;;;8.49;100.00;99293.84;5009398;28;20257;-78
2023/04/26 08:24:25;;;;;;;6.70;2.00;;;;;;;8.73;100.00;99284.63;5012681;28;20194;-78
2023/04/26 08:26:54;;;;;;;6.07;1.90;;;;;;;8.33;97.58;99292.00;5015509;28;20657;-78
2023/04/26 08:29:23;;;;;;;6.63;2.00;;;;;;;8.64;97.92;99281.63;5008577;28;20206;-78
2023/04/26 08:31:51;;;;;;;9.70;1.93;;;;;;;8.28;90.87;99293.16;5008820;28;20198;-78
2023/04/26 08:34:21;;;;;;;4.20;1.63;;;;;;;8.42;85.37;99295.97;5009404;28;20198;-78
2023/04/26 08:36:49;;;;;;;5.73;1.60;;;;;;;7.81;85.70;99295.59;5015050;28;20273;-78
2023/04/26 08:39:18;;;;;;;8.07;1.50;;;;;;;8.17;87.37;99291.09;5009781;28;20225;-78
2023/04/26 08:41:50;;;;;;;9.03;2.00;;;;;;;8.65;88.34;99289.44;5007992;28;20249;-78
2023/04/26 08:44:23;;;;;;;3.63;1.90;;;;;;;8.91;86.83;99288.03;5015295;28;20195;-78
2023/04/26 08:47:00;;;;;;;5.77;1.83;;;;;;;9.07;80.88;99285.38;5008545;28;20249;-78
2023/04/26 08:49:40;;;;;;;5.70;1.87;;;;;;;9.25;80.76;99283.50;5011199;28;20231;-78
2023/04/26 08:52:10;;;;;;;4.17;1.80;;;;;;;8.78;76.55;99285.22;5012763;28;20244;-78
2023/04/26 08:54:40;;;;;;;4.57;1.70;;;;;;;8.64;78.89;99281.63;5011903;28;20206;-78
2023/04/26 08:57:08;;;;;;;6.30;2.07;;;;;;;8.58;75.46;99282.78;5012021;28;20199;-78
2023/04/26 08:59:37;;;;;;;4.53;1.70;;;;;;;8.77;75.75;99280.00;5011888;28;20199;-78
2023/04/26 09:02:07;;;;;;;7.37;1.73;;;;;;;8.89;75.90;99282.00;5011828;28;20229;-78
2023/04/26 09:04:37;;;;;;;4.80;1.90;;;;;;;9.03;82.54;99276.78;5013488;28;20282;-78
2023/04/26 09:07:08;;;;;;;6.07;1.83;;;;;;;8.85;77.64;99277.81;5010398;28;20248;-78
2023/04/26 09:09:42;;;;;;;9.47;2.60;;;;;;;8.51;83.41;99284.94;5014632;28;20193;-77
2023/04/26 09:12:10;;;;;;;5.87;2.00;;;;;;;8.30;83.05;99286.03;5009475;28;20202;-77
2023/04/26 09:14:39;;;;;;;4.63;2.43;;;;;;;8.63;86.68;99278.13;5014564;28;20198;-77
2023/04/26 09:17:25;;;;;;;4.10;2.40;;;;;;;8.83;88.13;99282.31;5010831;28;20203;-78
2023/04/26 09:19:55;;;;;;;3.60;1.83;;;;;;;8.83;85.54;99263.84;5013555;28;20230;-78
2023/04/26 09:22:34;;;;;;;4.40;1.93;;;;;;;8.79;83.66;99276.38;4990704;28;20302;-78
2023/04/26 09:25:04;;;;;;;6.87;2.10;;;;;;;9.02;82.64;99275.09;4995119;28;20194;-82
2023/04/26 09:27:37;;;;;;;5.80;2.13;;;;;;;9.57;79.13;99268.47;4994950;28;20649;-82
2023/04/26 09:30:09;;;;;;;4.60;1.70;;;;;;;9.91;76.10;99276.09;4991808;28;20286;-82
2023/04/26 09:32:46;;;;;;;2.93;1.57;;;;;;;9.99;70.30;99270.34;4994612;28;20227;-82
2023/04/26 09:35:35;;;;;;;4.47;1.43;;;;;;;9.94;62.35;99278.59;4992647;28;20226;-82
2023/04/26 09:38:06;;;;;;;2.87;1.17;;;;;;;10.02;59.98;99268.38;4992786;28;20206;-82
2023/04/26 09:40:41;;;;;;;6.57;1.70;;;;;;;9.42;65.18;99260.47;4995011;28;20290;-82
2023/04/26 09:43:12;;;;;;;2.77;1.70;;;;;;;9.65;65.47;99261.78;4994837;28;20225;-82
2023/04/26 09:45:46;;;;;;;4.07;1.57;;;;;;;9.51;67.25;99268.81;4990999;28;20198;-82
2023/04/26 09:48:16;;;;;;;4.37;1.47;;;;;;;9.38;70.51;99269.53;4990942;28;20198;-81
2023/04/26 09:50:46;;;;;;;6.30;1.50;;;;;;;9.08;70.54;99264.19;4992217;28;20206;-82
2023/04/26 09:53:33;;;;;;;4.53;1.60;;;;;;;9.00;70.44;99265.56;4993107;28;20195;-81
2023/04/26 09:56:12;;;;;;;5.27;1.87;;;;;;;9.11;73.22;99265.78;4984982;28;20207;-81
2023/04/26 09:58:57;;;;;;;5.97;1.87;;;;;;;9.35;71.24;99266.19;4994900;28;20275;-81
2023/04/26 10:01:29;;;;;;;9.63;1.90;;;;;;;9.31;68.07;99265.50;4991991;28;20206;-81
2023/04/26 10:03:58;;;;;;;6.27;1.50;;;;;;;9.57;66.43;99265.81;4993078;28;20223;-81
2023/04/26 10:06:29;;;;;;;8.30;2.10;;;;;;;9.25;72.65;99260.56;4987116;28;20202;-81
2023/04/26 10:08:57;;;;;;;4.30;1.60;;;;;;;9.38;66.61;99263.38;4949809;29;20287;-80
2023/04/26 10:11:27;;;;;;;4.33;1.80;;;;;;;9.46;65.39;99258.50;4946486;29;20238;-81
2023/04/26 10:13:55;;;;;;;3.27;1.60;;;;;;;9.72;64.34;99263.09;4950845;29;20200;-81
2023/04/26 10:16:24;;;;;;;5.90;1.70;;;;;;;9.90;60.38;99269.09;4891677;29;20202;-81
2023/04/26 10:18:53;;;;;;;6.00;1.50;;;;;;;9.99;64.17;99257.13;4895431;29;20213;-81
2023/04/26 10:21:27;;;;;;;3.30;1.40;;;;;;;9.92;61.53;99261.06;4904270;29;20234;-81
2023/04/26 10:23:59;;;;;;;5.67;1.80;;;;;;;10.18;62.78;99251.56;4909812;29;20269;-81
2023/04/26 10:26:50;;;;;;;5.17;1.70;;;;;;;10.25;59.48;99253.78;4915284;29;20230;-81
2023/04/26 10:29:21;;;;;;;2.90;1.57;;;;;;;10.50;61.40;99249.63;4915141;29;20245;-82
2023/04/26 10:32:10;;;;;;;7.67;2.07;;;;;;;10.37;57.48;99246.03;4912484;29;20193;-81
2023/04/26 10:34:40;;;;;;;8.80;1.83;;;;;;;10.36;57.57;99239.91;4927659;29;20208;-81
2023/04/26 10:37:15;;;;;;;24.10;14.40;;;;;;;10.12;58.61;99244.00;4930559;29;20239;-81
2023/04/26 10:39:48;;;;;;;5.40;2.00;;;;;;;10.82;56.83;99243.16;4945786;28;20648;-82
2023/04/26 10:42:24;;;;;;;12.87;6.93;;;;;;;10.25;57.52;99247.66;5011197;28;20198;-82
2023/04/26 10:44:55;;;;;;;6.67;3.83;;;;;;;9.38;58.79;99236.94;5004873;28;20222;-81
2023/04/26 10:47:30;;;;;;;5.83;2.17;;;;;;;9.68;57.66;99237.78;5011755;28;20529;-81
2023/04/26 10:50:07;;;;;;;4.97;1.80;;;;;;;9.98;57.07;99231.63;5006282;28;20213;-81
2023/04/26 10:52:38;;;;;;;6.30;2.00;;;;;;;9.92;56.56;99231.97;5013385;28;20202;-82
2023/04/26 10:55:09;;;;;;;4.77;1.60;;;;;;;10.26;56.31;99231.66;5008915;28;20198;-82
2023/04/26 10:57:48;;;;;;;4.37;1.70;;;;;;;10.35;56.02;99229.41;5007937;28;20232;-81
2023/04/26 11:00:25;;;;;;;6.37;1.90;;;;;;;10.05;54.94;99225.00;5003664;28;20248;-82
2023/04/26 11:03:00;;;;;;;5.40;1.80;;;;;;;10.20;56.85;99221.41;5009550;28;20237;-81
2023/04/26 11:05:51;;;;;;;6.67;1.90;;;;;;;10.11;54.98;99224.63;5009489;28;20202;-82
2023/04/26 11:08:21;;;;;;;4.73;1.90;;;;;;;10.14;56.15;99218.31;5008720;28;20217;-81
2023/04/26 11:11:11;;;;;;;5.30;1.83;;;;;;;10.10;57.99;99222.94;5011197;28;20245;-81
2023/04/26 11:13:40;;;;;;;4.93;1.90;;;;;;;10.25;59.29;99222.03;5006243;28;20190;-81
2023/04/26 11:16:10;;;;;;;5.77;1.90;;;;;;;10.30;59.37;99222.59;5010928;28;20202;-82
2023/04/26 11:18:40;;;;;;;5.47;1.83;;;;;;;10.45;60.62;99217.28;5006294;28;20241;-81
2023/04/26 11:21:10;;;;;;;6.13;2.37;;;;;;;10.43;59.79;99216.53;5009178;28;20214;-82
2023/04/26 11:23:38;;;;;;;4.73;1.80;;;;;;;10.53;59.30;99212.38;5007248;28;20371;-81
2023/04/26 11:26:09;;;;;;;5.30;2.30;;;;;;;10.68;60.47;99218.47;5011268;28;20649;-82
2023/04/26 11:28:39;;;;;;;4.23;2.40;;;;;;;10.56;57.93;99220.13;5010324;28;20194;-81
2023/04/26 11:31:08;;;;;;;8.23;2.17;;;;;;;10.27;59.71;99222.78;5007721;28;20203;-81
2023/04/26 11:33:39;;;;;;;5.27;2.10;;;;;;;10.39;56.42;99213.22;5004596;28;20233;-81
2023/04/26 11:36:08;;;;;;;6.90;1.70;;;;;;;10.32;55.51;99214.53;5008023;28;20252;-82
2023/04/26 11:38:38;;;;;;;3.70;1.83;;;;;;;10.88;53.39;99208.31;5013108;28;20198;-82
2023/04/26 11:41:09;;;;;;;6.80;2.17;;;;;;;11.14;52.88;99208.44;5005986;28;20270;-82
2023/04/26 11:43:40;;;;;;;4.03;1.83;;;;;;;11.35;55.48;99209.66;5009172;28;20198;-81
2023/04/26 11:46:09;;;;;;;6.83;2.20;;;;;;;10.91;54.00;99209.09;5008787;28;20205;-81